Time;durP1;ratioP1;P1;durP2;ratioP2;P2;SDS_P1;SDS_P2;PMS_P1;PMS_P2;Temp;Humidity;BMP_temperature;BMP_pressure;BME280_temperature;BME280_humidity;BME280_pressure;Samples;Min_cycle;Max_cycle;Signal;HPM_P1;HPM_P2
2022/03/26 00:01:35;;;;;;;41.47;26.10;;;;;;;7.00;46.99;96600.22;6099916;23;20629;-77
2022/03/26 00:04:00;;;;;;;36.33;23.73;;;;;;;6.85;47.35;96602.97;6100363;23;20159;-77
2022/03/26 00:06:25;;;;;;;37.60;24.60;;;;;;;6.77;47.57;96606.03;6099281;23;20188;-79
2022/03/26 00:08:51;;;;;;;40.67;25.40;;;;;;;6.69;47.53;96598.78;6075545;23;20156;-78
2022/03/26 00:11:16;;;;;;;40.03;24.93;;;;;;;6.62;47.69;96602.69;6099098;23;20160;-78
2022/03/26 00:13:42;;;;;;;42.33;25.67;;;;;;;6.56;48.22;96594.53;6100150;23;20219;-77
2022/03/26 00:16:07;;;;;;;39.67;24.30;;;;;;;6.51;48.41;96590.47;6125282;23;20180;-77
2022/03/26 00:18:32;;;;;;;38.73;25.33;;;;;;;6.46;48.38;96591.69;6126488;23;20238;-77
2022/03/26 00:20:58;;;;;;;42.77;25.57;;;;;;;6.38;48.50;96594.75;6101112;23;20164;-77
2022/03/26 00:23:23;;;;;;;38.17;24.43;;;;;;;6.35;49.09;96586.38;6099494;23;20590;-77
2022/03/26 00:25:48;;;;;;;37.10;24.60;;;;;;;6.26;49.23;96590.34;6073284;23;20275;-79
2022/03/26 00:28:14;;;;;;;36.60;24.27;;;;;;;6.46;48.85;96596.88;6126767;23;20156;-78
2022/03/26 00:30:39;;;;;;;42.87;25.83;;;;;;;6.36;48.99;96585.44;6100169;23;20207;-79
2022/03/26 00:33:04;;;;;;;43.10;24.47;;;;;;;6.41;48.86;96588.56;6100238;23;20438;-80
2022/03/26 00:35:29;;;;;;;40.43;25.00;;;;;;;6.39;48.89;96586.09;6076201;23;20183;-77
2022/03/26 00:37:55;;;;;;;38.43;23.83;;;;;;;6.30;49.23;96589.25;6126068;23;20235;-76
2022/03/26 00:40:20;;;;;;;43.80;24.50;;;;;;;6.18;49.45;96592.56;6126299;23;20152;-77
2022/03/26 00:42:45;;;;;;;37.00;24.73;;;;;;;6.07;50.18;96587.25;6099464;23;20163;-77
2022/03/26 00:45:11;;;;;;;37.97;22.80;;;;;;;6.02;50.23;96597.88;6076153;23;20176;-77
2022/03/26 00:47:36;;;;;;;42.60;24.53;;;;;;;6.01;50.09;96595.38;6100650;23;20152;-78
2022/03/26 00:50:03;;;;;;;40.93;24.37;;;;;;;6.00;50.14;96601.44;6100872;23;20159;-79
2022/03/26 00:52:28;;;;;;;40.87;25.47;;;;;;;5.93;50.68;96593.28;6127892;23;20180;-79
2022/03/26 00:54:53;;;;;;;38.77;23.87;;;;;;;5.89;50.79;96595.16;6125379;23;20214;-77
2022/03/26 00:57:18;;;;;;;37.90;23.37;;;;;;;5.87;50.57;96602.16;6075083;23;20268;-76
2022/03/26 00:59:45;;;;;;;39.27;25.17;;;;;;;5.83;50.32;96592.97;6098653;23;20566;-76
2022/03/26 01:02:10;;;;;;;43.00;24.53;;;;;;;5.84;50.75;96597.22;6124855;23;20148;-77
2022/03/26 01:04:38;;;;;;;39.70;23.00;;;;;;;5.78;51.26;96595.00;6099708;23;20214;-77
2022/03/26 01:07:03;;;;;;;38.77;24.40;;;;;;;5.83;50.88;96598.13;6100609;23;20180;-77
2022/03/26 01:09:29;;;;;;;40.77;25.30;;;;;;;5.80;51.48;96598.31;6126432;23;20159;-78
2022/03/26 01:11:55;;;;;;;41.60;24.90;;;;;;;5.84;50.89;96596.38;6099200;23;20175;-77
2022/03/26 01:14:21;;;;;;;40.47;24.13;;;;;;;5.93;50.68;96591.53;6099685;23;20155;-77
2022/03/26 01:16:46;;;;;;;42.23;25.63;;;;;;;5.94;50.66;96587.19;6125289;23;20159;-77
2022/03/26 01:19:11;;;;;;;44.33;25.30;;;;;;;5.93;50.75;96591.53;6074777;23;20156;-77
2022/03/26 01:21:36;;;;;;;43.50;24.40;;;;;;;5.93;51.10;96585.53;6074369;23;20152;-76
2022/03/26 01:24:02;;;;;;;40.17;24.37;;;;;;;5.87;50.75;96585.88;6125635;23;20163;-77
2022/03/26 01:26:27;;;;;;;41.03;24.13;;;;;;;5.73;51.29;96593.59;6126504;23;20176;-78
2022/03/26 01:28:53;;;;;;;37.80;24.30;;;;;;;5.68;51.55;96588.75;6101851;23;20151;-77
2022/03/26 01:31:19;;;;;;;43.00;24.97;;;;;;;5.65;51.67;96584.59;6101728;23;20156;-78
2022/03/26 01:33:46;;;;;;;39.13;24.87;;;;;;;5.55;52.19;96585.22;6102457;23;20191;-77
2022/03/26 01:36:12;;;;;;;39.33;24.80;;;;;;;5.56;52.19;96589.47;6100273;23;20649;-79
2022/03/26 01:38:37;;;;;;;36.80;23.87;;;;;;;5.58;52.02;96582.50;6127509;23;20152;-77
2022/03/26 01:41:02;;;;;;;40.97;24.07;;;;;;;5.52;52.26;96591.41;6100344;23;20166;-77
2022/03/26 01:43:27;;;;;;;40.00;25.00;;;;;;;5.47;52.55;96590.00;6100193;23;20161;-76
2022/03/26 01:45:53;;;;;;;40.53;24.00;;;;;;;5.51;52.51;96587.16;6100438;23;20239;-76
2022/03/26 01:48:18;;;;;;;34.77;23.77;;;;;;;5.65;52.49;96583.75;6126681;23;20164;-76
2022/03/26 01:50:43;;;;;;;45.27;24.93;;;;;;;5.70;52.31;96581.75;6126032;23;20155;-78
2022/03/26 01:53:09;;;;;;;45.10;24.80;;;;;;;5.59;52.07;96579.81;6100707;23;20176;-77
2022/03/26 01:55:34;;;;;;;36.20;22.57;;;;;;;5.71;52.37;96574.84;6101851;23;20187;-77
2022/03/26 01:57:59;;;;;;;38.10;23.47;;;;;;;5.57;52.59;96570.53;6101927;23;20156;-77
2022/03/26 02:00:25;;;;;;;39.23;23.97;;;;;;;5.59;52.12;96573.84;6101726;23;20152;-78
2022/03/26 02:02:50;;;;;;;38.37;22.83;;;;;;;5.63;52.00;96572.72;6101468;23;20144;-77
2022/03/26 02:05:17;;;;;;;40.60;23.30;;;;;;;5.62;52.56;96571.06;6127716;23;20653;-77
2022/03/26 02:07:44;;;;;;;39.57;22.87;;;;;;;5.58;52.47;96578.16;6101926;23;20159;-77
2022/03/26 02:10:14;;;;;;;39.07;22.23;;;;;;;5.54;52.40;96586.16;6126550;23;20148;-78
2022/03/26 02:12:40;;;;;;;40.03;22.40;;;;;;;5.54;52.66;96581.00;6100676;23;20172;-79
2022/03/26 02:15:06;;;;;;;37.17;22.37;;;;;;;5.69;52.20;96578.34;6101444;23;20216;-77
2022/03/26 02:17:32;;;;;;;35.47;22.90;;;;;;;5.65;52.49;96570.88;6124852;23;20164;-78
2022/03/26 02:19:59;;;;;;;33.97;21.03;;;;;;;5.66;52.36;96573.38;6124680;23;20156;-77
2022/03/26 02:22:27;;;;;;;39.30;21.73;;;;;;;5.52;52.46;96564.81;6075267;23;20152;-77
2022/03/26 02:24:53;;;;;;;37.47;22.97;;;;;;;5.65;52.32;96568.28;6126681;23;20183;-77
2022/03/26 02:27:18;;;;;;;33.23;21.20;;;;;;;5.58;52.11;96567.84;6100932;23;20239;-77
2022/03/26 02:29:44;;;;;;;42.37;23.47;;;;;;;5.63;52.13;96562.41;6076184;23;20736;-76
2022/03/26 02:32:09;;;;;;;43.37;21.90;;;;;;;5.52;52.63;96559.66;6123330;23;20172;-76
2022/03/26 02:34:35;;;;;;;37.57;22.33;;;;;;;5.55;52.03;96556.88;6126919;23;20172;-76
2022/03/26 02:37:00;;;;;;;37.27;21.50;;;;;;;5.63;52.21;96555.50;6077619;23;20166;-78
2022/03/26 02:39:27;;;;;;;33.13;20.53;;;;;;;5.64;52.06;96556.34;6127550;23;20163;-78
2022/03/26 02:41:53;;;;;;;35.40;20.27;;;;;;;5.51;52.23;96551.09;6076387;23;20179;-78
2022/03/26 02:44:19;;;;;;;37.00;21.93;;;;;;;5.62;52.49;96548.69;6101211;23;20578;-79
2022/03/26 02:46:45;;;;;;;29.73;20.30;;;;;;;5.56;52.50;96556.78;6101507;23;20152;-78
2022/03/26 02:49:14;;;;;;;37.60;21.13;;;;;;;5.67;52.00;96551.00;6101135;23;20202;-78
2022/03/26 02:51:40;;;;;;;36.60;21.57;;;;;;;5.68;51.90;96553.50;6101050;23;20186;-78
2022/03/26 02:54:06;;;;;;;35.87;20.73;;;;;;;5.54;52.27;96548.34;6125732;23;20152;-79
2022/03/26 02:56:31;;;;;;;32.40;20.17;;;;;;;5.52;52.53;96557.09;6077156;23;20171;-78
2022/03/26 02:58:56;;;;;;;37.60;21.73;;;;;;;5.36;53.07;96552.84;6126950;23;20223;-78
2022/03/26 03:01:23;;;;;;;32.87;20.77;;;;;;;5.37;53.00;96557.06;6126725;23;20152;-78
2022/03/26 03:03:49;;;;;;;32.87;21.23;;;;;;;5.31;53.07;96551.47;6126806;23;20234;-78
2022/03/26 03:06:14;;;;;;;37.50;21.87;;;;;;;5.27;53.26;96557.72;6126874;23;20179;-78
2022/03/26 03:08:39;;;;;;;34.87;20.17;;;;;;;5.20;53.74;96556.41;6127010;23;20159;-77
2022/03/26 03:11:05;;;;;;;34.60;20.20;;;;;;;5.27;53.31;96557.72;6126620;23;20152;-77
2022/03/26 03:13:30;;;;;;;37.67;20.40;;;;;;;5.23;53.26;96554.50;6100721;23;20164;-78
2022/03/26 03:15:58;;;;;;;37.63;20.27;;;;;;;5.17;53.52;96557.41;6101172;23;20183;-78
2022/03/26 03:18:23;;;;;;;32.53;20.73;;;;;;;5.07;53.75;96546.84;6103407;23;20535;-77
2022/03/26 03:20:49;;;;;;;33.50;21.20;;;;;;;5.07;53.96;96551.97;6110623;23;20152;-76
2022/03/26 03:23:14;;;;;;;34.27;20.93;;;;;;;5.11;53.98;96542.31;6111235;23;20176;-76
2022/03/26 03:25:39;;;;;;;34.60;21.57;;;;;;;5.00;54.12;96542.97;6108962;23;20176;-76
2022/03/26 03:28:05;;;;;;;40.43;22.10;;;;;;;4.89;55.19;96544.50;6110996;23;20621;-78
2022/03/26 03:30:30;;;;;;;37.37;22.63;;;;;;;4.76;55.29;96542.63;6110456;23;20156;-76
2022/03/26 03:32:56;;;;;;;39.20;21.70;;;;;;;4.67;55.98;96538.00;6109201;23;20175;-76
2022/03/26 03:35:21;;;;;;;37.30;21.83;;;;;;;4.62;56.34;96537.44;6108181;23;20184;-78
2022/03/26 03:37:47;;;;;;;37.60;22.13;;;;;;;4.50;56.84;96541.53;6075473;23;20607;-77
2022/03/26 03:40:13;;;;;;;34.83;21.87;;;;;;;4.45;56.71;96537.56;6100329;23;20163;-78
2022/03/26 03:42:39;;;;;;;34.47;21.50;;;;;;;4.43;57.14;96540.22;6075750;23;20243;-77
2022/03/26 03:45:04;;;;;;;35.67;21.83;;;;;;;4.37;57.77;96534.59;6099792;23;20223;-78
2022/03/26 03:47:30;;;;;;;36.60;21.80;;;;;;;4.30;58.15;96539.25;6100421;23;20219;-78
2022/03/26 03:49:55;;;;;;;34.47;20.77;;;;;;;4.30;57.78;96540.97;6101105;23;20273;-80
2022/03/26 03:52:21;;;;;;;33.43;19.93;;;;;;;4.39;56.69;96533.59;6076851;23;20247;-78
2022/03/26 03:54:46;;;;;;;35.07;20.97;;;;;;;4.49;56.60;96539.03;6099974;23;20176;-78
2022/03/26 03:57:11;;;;;;;34.73;19.80;;;;;;;4.62;55.96;96534.88;6125057;23;20159;-78
2022/03/26 03:59:40;;;;;;;34.07;21.10;;;;;;;4.57;55.97;96530.91;6099501;23;20163;-77
2022/03/26 04:02:12;;;;;;;37.37;19.33;;;;;;;4.62;56.07;96541.75;6099316;23;20152;-78
2022/03/26 04:04:38;;;;;;;31.43;20.20;;;;;;;4.63;56.01;96526.25;6101075;23;20258;-79
2022/03/26 04:07:04;;;;;;;31.63;20.73;;;;;;;4.59;55.79;96529.88;6101433;23;20160;-79
2022/03/26 04:09:29;;;;;;;35.70;20.53;;;;;;;4.59;56.14;96529.88;6099757;23;20605;-78
2022/03/26 04:11:55;;;;;;;34.13;19.73;;;;;;;4.72;55.80;96530.03;6099069;23;20184;-78
2022/03/26 04:14:20;;;;;;;32.97;20.17;;;;;;;4.59;55.74;96534.19;6075595;23;20168;-77
2022/03/26 04:16:45;;;;;;;35.80;19.83;;;;;;;4.60;55.55;96525.59;6100246;23;20571;-76
2022/03/26 04:19:12;;;;;;;36.83;20.43;;;;;;;4.60;56.03;96521.28;6076176;23;20160;-77
2022/03/26 04:21:38;;;;;;;34.27;19.63;;;;;;;4.64;55.39;96527.88;6124699;23;20637;-78
2022/03/26 04:24:03;;;;;;;33.67;20.43;;;;;;;4.62;56.03;96527.16;6123699;23;20160;-77
2022/03/26 04:26:28;;;;;;;33.70;19.27;;;;;;;4.54;55.89;96521.63;6076772;23;20174;-77
2022/03/26 04:28:54;;;;;;;37.30;20.30;;;;;;;4.44;56.68;96525.63;6124615;23;20156;-77
2022/03/26 04:31:19;;;;;;;35.57;20.63;;;;;;;4.38;56.94;96525.97;6075128;23;20504;-79
2022/03/26 04:33:44;;;;;;;34.67;20.27;;;;;;;4.24;57.28;96529.28;6128444;23;20179;-79
2022/03/26 04:36:09;;;;;;;32.13;19.17;;;;;;;4.16;57.57;96527.16;6112864;23;20227;-77
2022/03/26 04:38:36;;;;;;;36.33;21.67;;;;;;;4.10;57.53;96534.38;6086405;23;20164;-76
2022/03/26 04:41:01;;;;;;;38.57;21.33;;;;;;;4.05;58.15;96526.91;6112632;23;20153;-78
2022/03/26 04:43:27;;;;;;;36.43;21.67;;;;;;;3.97;58.57;96526.50;6113554;23;20481;-78
2022/03/26 04:45:52;;;;;;;36.17;21.57;;;;;;;3.92;58.83;96526.75;6126958;23;20183;-79
2022/03/26 04:48:17;;;;;;;39.53;21.53;;;;;;;3.89;59.13;96526.09;6126413;23;20160;-79
2022/03/26 04:50:42;;;;;;;35.80;20.97;;;;;;;3.83;59.06;96524.69;6126820;23;20163;-79
2022/03/26 04:53:09;;;;;;;30.53;20.10;;;;;;;3.82;59.68;96523.03;6125681;23;20203;-79
2022/03/26 04:55:34;;;;;;;31.90;19.90;;;;;;;3.84;59.33;96523.78;6100554;23;20215;-79
2022/03/26 04:58:00;;;;;;;31.83;19.83;;;;;;;3.76;59.27;96528.47;6128395;23;20159;-79
2022/03/26 05:00:26;;;;;;;33.70;19.53;;;;;;;3.76;59.71;96533.63;6077904;23;20211;-80
2022/03/26 05:02:51;;;;;;;38.30;21.37;;;;;;;3.82;59.49;96533.31;6101506;23;20148;-80
2022/03/26 05:05:17;;;;;;;34.77;20.07;;;;;;;3.82;59.30;96533.31;6102047;23;20180;-79
2022/03/26 05:07:45;;;;;;;32.87;19.80;;;;;;;3.78;59.41;96538.69;6127805;23;20153;-79
2022/03/26 05:10:10;;;;;;;38.23;21.67;;;;;;;3.72;59.70;96539.84;6101972;23;20501;-77
2022/03/26 05:12:35;;;;;;;35.03;21.10;;;;;;;3.72;60.01;96541.59;6076702;23;20182;-77
2022/03/26 05:15:01;;;;;;;32.67;20.37;;;;;;;3.73;59.97;96548.38;6101309;23;20701;-79
2022/03/26 05:17:26;;;;;;;34.67;20.07;;;;;;;3.68;60.12;96549.44;6127096;23;20160;-78
2022/03/26 05:19:51;;;;;;;37.47;21.30;;;;;;;3.68;59.72;96546.88;6101570;23;20152;-79
2022/03/26 05:22:17;;;;;;;36.90;20.93;;;;;;;3.70;59.75;96545.03;6126321;23;20154;-78
2022/03/26 05:24:42;;;;;;;35.77;20.87;;;;;;;3.78;59.90;96538.69;6099352;23;20172;-78
2022/03/26 05:27:08;;;;;;;34.27;21.27;;;;;;;3.80;60.14;96547.13;6101654;23;20180;-78
2022/03/26 05:29:33;;;;;;;33.83;20.53;;;;;;;3.84;59.69;96552.03;6100622;23;20226;-77
2022/03/26 05:31:59;;;;;;;38.07;21.60;;;;;;;3.90;59.16;96549.16;6100460;23;20574;-77
2022/03/26 05:34:24;;;;;;;33.27;20.93;;;;;;;4.04;59.25;96553.53;6127126;23;20674;-79
2022/03/26 05:36:50;;;;;;;36.00;20.33;;;;;;;4.09;58.46;96553.28;6102065;23;20170;-80
2022/03/26 05:39:15;;;;;;;35.10;20.23;;;;;;;4.15;58.64;96561.50;6077799;23;20186;-79
2022/03/26 05:41:42;;;;;;;35.87;20.33;;;;;;;4.19;58.20;96557.84;6101246;23;20156;-79
2022/03/26 05:44:08;;;;;;;34.93;19.67;;;;;;;4.21;57.95;96566.28;6102086;23;20172;-79
2022/03/26 05:46:33;;;;;;;32.57;19.93;;;;;;;4.27;58.02;96570.28;6126216;23;20156;-79
2022/03/26 05:48:58;;;;;;;36.97;20.30;;;;;;;4.34;57.72;96581.06;6101442;23;20633;-79
2022/03/26 05:51:24;;;;;;;33.93;20.70;;;;;;;4.40;57.73;96576.38;6100993;23;20164;-79
2022/03/26 05:53:50;;;;;;;34.57;20.10;;;;;;;4.48;57.71;96581.94;6127790;23;20179;-79
2022/03/26 05:56:16;;;;;;;34.33;20.87;;;;;;;4.52;57.66;96580.88;6101919;23;20187;-79
2022/03/26 05:58:41;;;;;;;35.57;20.53;;;;;;;4.57;57.39;96590.88;6077479;23;20509;-79
2022/03/26 06:01:06;;;;;;;34.17;20.13;;;;;;;4.63;57.02;96590.56;6077084;23;20159;-79
2022/03/26 06:03:31;;;;;;;33.87;20.37;;;;;;;4.74;56.74;96587.38;6127170;23;20622;-79
2022/03/26 06:05:58;;;;;;;33.63;20.87;;;;;;;4.80;56.76;96592.19;6127468;23;20180;-79
2022/03/26 06:08:23;;;;;;;32.07;19.83;;;;;;;4.93;56.49;96589.72;6101918;23;20497;-78
2022/03/26 06:10:49;;;;;;;33.77;20.50;;;;;;;5.01;56.21;96587.53;6102111;23;20231;-80
2022/03/26 06:13:14;;;;;;;33.00;20.13;;;;;;;5.03;56.27;96586.53;6076369;23;20191;-78
2022/03/26 06:15:40;;;;;;;37.17;20.80;;;;;;;5.18;55.27;96591.72;6078255;23;20184;-79
2022/03/26 06:18:05;;;;;;;35.00;20.10;;;;;;;5.28;55.48;96600.56;6081102;23;20247;-80
2022/03/26 06:20:31;;;;;;;34.67;21.00;;;;;;;5.33;55.22;96603.72;6103243;23;20164;-79
2022/03/26 06:22:57;;;;;;;34.87;21.20;;;;;;;5.55;54.78;96601.50;6101726;23;20156;-79
2022/03/26 06:25:22;;;;;;;33.80;20.33;;;;;;;5.59;54.91;96615.88;6100524;23;20307;-78
2022/03/26 06:27:48;;;;;;;36.53;21.40;;;;;;;5.63;54.49;96619.94;6102591;23;20156;-80
2022/03/26 06:30:16;;;;;;;32.27;20.83;;;;;;;5.74;53.76;96618.44;6127742;23;20152;-78
2022/03/26 06:32:42;;;;;;;34.87;19.97;;;;;;;5.81;53.94;96623.16;6129086;23;20250;-78
2022/03/26 06:35:08;;;;;;;34.53;20.87;;;;;;;5.88;53.89;96621.88;6104437;23;20638;-79
2022/03/26 06:37:33;;;;;;;40.00;21.70;;;;;;;5.92;53.54;96618.22;6082647;23;20220;-79
2022/03/26 06:39:58;;;;;;;34.30;20.03;;;;;;;6.05;53.16;96622.63;6107022;23;20160;-78
2022/03/26 06:42:25;;;;;;;36.07;21.37;;;;;;;6.24;52.32;96625.72;6105570;23;20152;-79
2022/03/26 06:44:50;;;;;;;35.23;20.67;;;;;;;6.23;53.10;96626.66;6081259;23;20710;-78
2022/03/26 06:47:16;;;;;;;31.47;19.83;;;;;;;6.37;52.26;96625.81;6106731;23;20152;-78
2022/03/26 06:49:41;;;;;;;38.13;20.50;;;;;;;6.43;51.65;96628.81;6105803;23;20207;-78
2022/03/26 06:52:07;;;;;;;36.03;20.93;;;;;;;6.56;51.47;96635.81;6079513;23;20190;-78
2022/03/26 06:54:33;;;;;;;38.50;21.43;;;;;;;6.70;51.50;96635.75;6104705;23;20172;-79
2022/03/26 06:56:58;;;;;;;37.63;20.13;;;;;;;6.74;51.25;96635.47;6103528;23;20160;-78
2022/03/26 06:59:23;;;;;;;35.13;21.50;;;;;;;6.86;51.25;96645.94;6130400;23;20490;-78
2022/03/26 07:01:49;;;;;;;36.80;20.07;;;;;;;6.86;51.17;96641.59;6103845;23;20214;-78
2022/03/26 07:04:14;;;;;;;42.70;20.30;;;;;;;6.94;50.57;96643.69;6080740;23;20162;-78
2022/03/26 07:06:40;;;;;;;33.27;20.80;;;;;;;6.87;51.37;96647.59;6106732;23;20152;-80
2022/03/26 07:09:05;;;;;;;37.83;20.83;;;;;;;6.93;50.30;96645.44;6081256;23;20167;-80
2022/03/26 07:11:30;;;;;;;32.50;20.40;;;;;;;7.07;51.01;96650.56;6105286;23;20215;-80
2022/03/26 07:13:55;;;;;;;34.83;20.60;;;;;;;7.12;50.73;96646.84;6080874;23;20486;-78
2022/03/26 07:16:21;;;;;;;36.63;20.53;;;;;;;7.18;51.10;96656.78;6105366;23;20179;-78
2022/03/26 07:18:46;;;;;;;38.60;21.90;;;;;;;7.17;50.09;96663.72;6100793;23;20174;-77
2022/03/26 07:21:11;;;;;;;34.77;20.87;;;;;;;7.09;50.79;96661.63;6120777;23;20148;-77
2022/03/26 07:23:37;;;;;;;35.00;21.57;;;;;;;7.14;50.59;96655.31;6123837;23;20159;-78
2022/03/26 07:26:02;;;;;;;36.80;21.87;;;;;;;7.08;50.97;96659.97;6097737;23;20196;-78
2022/03/26 07:28:27;;;;;;;35.43;20.07;;;;;;;7.15;50.86;96657.78;6099231;23;20164;-78
2022/03/26 07:30:53;;;;;;;34.67;20.27;;;;;;;7.24;50.06;96658.94;6101543;23;20156;-78
2022/03/26 07:33:18;;;;;;;33.60;20.40;;;;;;;7.33;49.80;96666.97;6127218;23;20179;-78
2022/03/26 07:35:44;;;;;;;37.33;22.17;;;;;;;7.42;49.85;96656.91;6102325;23;20184;-80
2022/03/26 07:38:10;;;;;;;36.37;21.60;;;;;;;7.45;49.77;96664.50;6102937;23;20167;-79
2022/03/26 07:40:35;;;;;;;36.30;20.77;;;;;;;7.55;49.69;96661.19;6101891;23;20156;-78
2022/03/26 07:43:02;;;;;;;32.43;20.80;;;;;;;7.67;49.49;96662.94;6076495;23;20235;-78
2022/03/26 07:45:27;;;;;;;37.40;21.30;;;;;;;7.62;50.13;96666.78;6104552;23;20182;-78
2022/03/26 07:47:53;;;;;;;36.20;22.67;;;;;;;7.78;50.07;96666.59;6080748;23;20180;-77
2022/03/26 07:50:18;;;;;;;33.43;20.10;;;;;;;7.82;49.34;96668.84;6130752;23;20163;-78
2022/03/26 07:52:43;;;;;;;41.40;22.43;;;;;;;7.73;49.31;96672.06;6080249;23;20179;-80
2022/03/26 07:55:10;;;;;;;39.33;23.07;;;;;;;7.71;49.00;96670.53;6081097;23;20278;-78
2022/03/26 07:57:35;;;;;;;35.40;21.43;;;;;;;7.70;49.81;96671.44;6106475;23;20148;-77
2022/03/26 08:00:00;;;;;;;33.17;21.57;;;;;;;7.88;49.64;96670.22;6130679;23;20180;-78
2022/03/26 08:02:26;;;;;;;36.83;22.03;;;;;;;7.89;49.13;96679.63;6105556;23;20184;-79
2022/03/26 08:04:51;;;;;;;42.80;22.53;;;;;;;8.00;48.56;96674.53;6103100;23;20594;-78
2022/03/26 08:07:16;;;;;;;37.20;22.37;;;;;;;7.88;49.42;96677.97;6128152;23;20162;-77
2022/03/26 08:09:42;;;;;;;32.67;19.77;;;;;;;8.02;49.72;96675.25;6079088;23;20163;-78
2022/03/26 08:12:08;;;;;;;34.33;21.73;;;;;;;8.22;49.57;96674.75;6103132;23;20186;-78
2022/03/26 08:14:34;;;;;;;39.23;21.17;;;;;;;8.26;49.41;96684.88;6081902;23;20338;-77
2022/03/26 08:17:00;;;;;;;37.93;21.43;;;;;;;8.37;48.61;96685.00;6082206;23;20187;-78
2022/03/26 08:19:27;;;;;;;35.40;22.53;;;;;;;8.38;48.13;96684.06;6133436;23;20175;-80
2022/03/26 08:21:52;;;;;;;39.03;22.60;;;;;;;8.61;47.84;96680.69;6082679;23;20152;-79
2022/03/26 08:24:17;;;;;;;41.53;22.57;;;;;;;8.69;47.83;96686.16;6107335;23;20156;-78
2022/03/26 08:26:43;;;;;;;38.53;23.50;;;;;;;8.73;48.07;96686.75;6106391;23;20238;-78
2022/03/26 08:29:08;;;;;;;35.77;21.37;;;;;;;8.94;47.20;96684.44;6105619;23;20183;-77
2022/03/26 08:31:33;;;;;;;33.67;22.27;;;;;;;8.97;47.12;96689.38;6083238;23;20183;-79
2022/03/26 08:34:02;;;;;;;39.80;23.97;;;;;;;9.14;47.62;96694.19;6108330;23;20215;-79
2022/03/26 08:36:27;;;;;;;35.33;22.53;;;;;;;9.31;46.60;96704.16;6108746;23;20513;-79
2022/03/26 08:38:53;;;;;;;34.70;21.57;;;;;;;9.35;47.09;96710.75;6108804;23;20152;-80
2022/03/26 08:41:20;;;;;;;39.43;22.50;;;;;;;9.52;46.08;96700.91;6106846;23;20215;-79
2022/03/26 08:43:46;;;;;;;42.27;24.10;;;;;;;9.55;46.12;96708.50;6083863;23;20179;-77
2022/03/26 08:46:12;;;;;;;37.27;22.73;;;;;;;9.56;45.89;96702.38;6084495;23;20191;-80
2022/03/26 08:48:37;;;;;;;39.70;24.40;;;;;;;9.72;45.35;96710.66;6083727;23;20168;-78
2022/03/26 08:51:03;;;;;;;40.50;24.40;;;;;;;9.81;45.90;96707.38;6107330;23;20158;-78
2022/03/26 08:53:28;;;;;;;37.57;22.80;;;;;;;10.01;45.07;96708.47;6082300;23;20648;-78
2022/03/26 08:55:54;;;;;;;38.27;23.77;;;;;;;9.89;44.73;96710.25;6105893;23;20270;-78
2022/03/26 08:58:19;;;;;;;38.57;23.40;;;;;;;9.99;45.16;96714.75;6108368;23;20239;-77
2022/03/26 09:00:48;;;;;;;41.77;24.80;;;;;;;10.08;44.40;96714.03;6109000;23;20156;-79
2022/03/26 09:03:14;;;;;;;40.60;23.67;;;;;;;10.13;44.29;96715.31;6085748;23;20155;-78
2022/03/26 09:05:40;;;;;;;43.13;24.83;;;;;;;10.20;42.36;96718.28;6085428;23;20199;-78
2022/03/26 09:08:06;;;;;;;42.33;25.33;;;;;;;10.16;43.61;96714.28;6085836;23;20167;-78
2022/03/26 09:10:31;;;;;;;40.27;23.90;;;;;;;10.14;43.60;96713.56;6109219;23;20186;-78
2022/03/26 09:12:56;;;;;;;39.90;24.63;;;;;;;10.44;43.79;96720.81;6084325;23;20684;-80
2022/03/26 09:15:22;;;;;;;40.83;24.60;;;;;;;10.41;43.50;96714.06;6109168;23;20179;-79
2022/03/26 09:17:47;;;;;;;39.40;24.03;;;;;;;10.62;41.33;96715.97;6085082;23;20163;-79
2022/03/26 09:20:12;;;;;;;40.83;24.43;;;;;;;10.76;41.46;96721.72;6085092;23;20157;-79
2022/03/26 09:22:38;;;;;;;38.97;23.30;;;;;;;10.91;42.36;96714.50;6084892;23;20159;-79
2022/03/26 09:25:04;;;;;;;38.93;24.80;;;;;;;11.07;42.15;96704.56;6085076;23;20211;-79
2022/03/26 09:27:30;;;;;;;40.07;25.90;;;;;;;11.27;42.80;96710.75;6086627;23;20611;-79
2022/03/26 09:29:55;;;;;;;40.23;24.87;;;;;;;11.41;41.95;96708.81;6110297;23;20155;-79
2022/03/26 09:32:22;;;;;;;40.83;24.37;;;;;;;11.47;41.09;96711.72;6108900;23;20184;-78
2022/03/26 09:34:48;;;;;;;36.40;25.47;;;;;;;11.49;41.08;96703.84;6104935;23;20238;-78
2022/03/26 09:37:13;;;;;;;46.23;25.23;;;;;;;11.64;41.38;96716.38;6081260;23;20219;-78
2022/03/26 09:39:39;;;;;;;44.63;26.40;;;;;;;11.59;39.29;96709.94;6106666;23;20155;-79
2022/03/26 09:42:05;;;;;;;42.10;25.97;;;;;;;11.78;39.60;96710.06;6105306;23;20153;-78
2022/03/26 09:44:31;;;;;;;41.97;25.77;;;;;;;11.83;39.32;96712.31;6086151;23;20183;-77
2022/03/26 09:46:57;;;;;;;41.27;25.00;;;;;;;11.72;39.20;96709.72;6133299;23;20153;-78
2022/03/26 09:49:22;;;;;;;41.40;25.30;;;;;;;11.70;39.79;96706.44;6134831;23;20274;-78
2022/03/26 09:51:54;;;;;;;38.83;25.00;;;;;;;11.98;39.81;96702.41;6107731;23;20175;-79
2022/03/26 09:54:21;;;;;;;42.33;25.53;;;;;;;11.92;37.96;96703.72;6108809;23;20132;-78
2022/03/26 09:56:46;;;;;;;40.60;25.13;;;;;;;12.06;39.94;96708.63;6083793;23;20228;-77
2022/03/26 09:59:11;;;;;;;42.87;26.17;;;;;;;12.08;38.86;96711.09;6109680;23;20639;-78
2022/03/26 10:01:36;;;;;;;43.27;25.87;;;;;;;12.34;38.90;96701.91;6083389;23;20156;-78
2022/03/26 10:04:22;;;;;;;43.93;26.00;;;;;;;12.52;38.80;96711.72;6105145;23;20166;-77
2022/03/26 10:06:53;;;;;;;39.33;25.73;;;;;;;12.52;36.24;96704.72;6107187;23;20223;-78
2022/03/26 10:09:35;;;;;;;43.13;25.20;;;;;;;12.61;36.56;96711.75;6084559;23;20644;-78
2022/03/26 10:12:12;;;;;;;41.00;26.03;;;;;;;12.71;37.22;96710.00;6107592;23;20182;-78
2022/03/26 10:14:48;;;;;;;46.97;26.00;;;;;;;12.85;37.39;96706.22;6108447;23;20182;-78
2022/03/26 10:17:28;;;;;;;40.60;25.97;;;;;;;12.64;36.15;96705.47;6084024;23;20147;-81
2022/03/26 10:19:58;;;;;;;39.60;24.83;;;;;;;12.81;35.70;96709.19;6108398;23;20156;-80
2022/03/26 10:22:29;;;;;;;41.07;25.43;;;;;;;12.95;36.45;96699.22;6132169;23;20534;-78
2022/03/26 10:24:56;;;;;;;42.57;26.00;;;;;;;12.93;36.40;96698.56;6134659;23;20249;-78
2022/03/26 10:27:22;;;;;;;41.27;27.33;;;;;;;13.01;36.20;96703.09;6107199;23;20152;-78
2022/03/26 10:29:48;;;;;;;39.37;25.40;;;;;;;13.12;35.14;96691.72;6107926;23;20194;-79
2022/03/26 10:32:39;;;;;;;42.37;26.27;;;;;;;12.98;34.52;96695.53;6105745;23;20184;-78
2022/03/26 10:35:16;;;;;;;43.53;26.37;;;;;;;13.18;35.02;96697.22;6125591;23;20176;-78
2022/03/26 10:37:47;;;;;;;41.63;26.00;;;;;;;13.33;35.84;96695.88;6125985;23;20155;-79
2022/03/26 10:40:23;;;;;;;41.37;26.03;;;;;;;13.36;34.97;96700.00;6100581;23;20171;-78
2022/03/26 10:42:53;;;;;;;44.13;27.37;;;;;;;13.33;35.07;96703.69;6103427;23;20476;-78
2022/03/26 10:45:19;;;;;;;41.53;25.73;;;;;;;13.18;35.46;96694.63;6082714;23;20176;-79
2022/03/26 10:47:44;;;;;;;41.60;26.30;;;;;;;13.25;35.34;96698.38;6085968;23;20275;-80
2022/03/26 10:50:14;;;;;;;40.97;27.20;;;;;;;13.33;35.18;96693.25;6133027;23;20156;-78
2022/03/26 10:52:39;;;;;;;45.73;27.73;;;;;;;13.30;34.08;96692.72;6108637;23;20207;-79
2022/03/26 10:55:15;;;;;;;46.70;26.67;;;;;;;13.27;33.32;96687.78;6109507;23;20192;-79
2022/03/26 10:57:45;;;;;;;46.37;26.90;;;;;;;13.41;34.12;96689.16;6083617;23;20152;-80
2022/03/26 11:00:12;;;;;;;43.17;27.40;;;;;;;13.48;33.94;96700.69;6133484;23;20152;-78
2022/03/26 11:02:37;;;;;;;38.17;25.83;;;;;;;13.47;33.90;96684.22;6106867;23;20154;-79
2022/03/26 11:05:03;;;;;;;50.93;27.33;;;;;;;13.58;34.22;96691.06;6107796;23;20647;-78
2022/03/26 11:07:29;;;;;;;38.83;26.87;;;;;;;13.62;34.21;96689.84;6081632;23;20629;-77
2022/03/26 11:09:55;;;;;;;42.70;27.10;;;;;;;13.62;33.84;96697.69;6100271;23;20163;-79
2022/03/26 11:12:21;;;;;;;47.27;26.60;;;;;;;13.55;34.46;96691.38;6077615;23;20175;-78
2022/03/26 11:14:47;;;;;;;40.13;26.33;;;;;;;13.54;33.51;96707.97;6080907;23;20183;-80
2022/03/26 11:17:49;;;;;;;45.17;27.60;;;;;;;13.70;33.54;96692.59;6075635;23;20234;-79
2022/03/26 11:20:25;;;;;;;43.27;26.90;;;;;;;13.85;34.88;96685.97;6104089;23;20155;-81